Time;durP1;ratioP1;P1;durP2;ratioP2;P2;SDS_P1;SDS_P2;PMS_P1;PMS_P2;Temp;Humidity;BMP_temperature;BMP_pressure;BME280_temperature;BME280_humidity;BME280_pressure;Samples;Min_cycle;Max_cycle;Signal;HPM_P1;HPM_P2
2021/03/24 00:01:59;;;;;;;46.88;23.00;;;;;;;6.73;71.15;100702.88;5015578;28;20050;-59
2021/03/24 00:04:27;;;;;;;45.40;25.85;;;;;;;6.73;71.14;100701.16;5031737;28;20049;-59
2021/03/24 00:07:01;;;;;;;44.45;24.75;;;;;;;6.73;71.01;100700.31;5014664;28;20053;-60
2021/03/24 00:09:30;;;;;;;42.75;23.08;;;;;;;6.73;70.89;100706.31;4998725;28;20141;-59
2021/03/24 00:12:04;;;;;;;41.58;24.08;;;;;;;6.72;71.27;100703.69;5015801;28;20030;-59
2021/03/24 00:14:35;;;;;;;41.30;25.20;;;;;;;6.72;70.84;100701.97;5015743;28;20033;-59
2021/03/24 00:17:03;;;;;;;38.95;24.48;;;;;;;6.73;71.22;100703.75;4998009;28;20049;-59
2021/03/24 00:19:37;;;;;;;44.40;26.10;;;;;;;6.73;71.01;100708.03;5015583;28;20530;-60
2021/03/24 00:22:13;;;;;;;51.78;26.42;;;;;;;6.73;71.04;100708.03;5030968;28;20551;-59
2021/03/24 00:24:46;;;;;;;44.38;26.63;;;;;;;6.72;70.89;100708.84;5031146;28;20483;-59
2021/03/24 00:27:17;;;;;;;38.30;24.45;;;;;;;6.69;71.06;100704.44;5015517;28;20078;-59
2021/03/24 00:29:49;;;;;;;38.35;24.88;;;;;;;6.69;71.41;100695.00;5015541;28;20034;-59
2021/03/24 00:32:19;;;;;;;39.80;24.52;;;;;;;6.67;71.52;100701.78;5014240;28;20096;-59
2021/03/24 00:34:56;;;;;;;37.65;23.67;;;;;;;6.68;70.98;100700.97;5015383;28;20092;-59
2021/03/24 00:37:27;;;;;;;42.70;25.58;;;;;;;6.67;71.03;100699.22;5015264;28;20521;-59
2021/03/24 00:39:58;;;;;;;40.33;25.27;;;;;;;6.65;71.35;100687.97;5030625;28;20038;-59
2021/03/24 00:42:29;;;;;;;39.47;25.13;;;;;;;6.65;71.15;100690.53;4997731;28;20034;-60
2021/03/24 00:45:06;;;;;;;38.85;25.23;;;;;;;6.66;70.96;100694.88;4997449;28;20121;-59
2021/03/24 00:47:41;;;;;;;39.42;25.20;;;;;;;6.66;71.37;100692.31;5014150;28;20498;-59
2021/03/24 00:50:14;;;;;;;41.13;24.52;;;;;;;6.66;71.16;100694.88;4997608;28;20045;-59
2021/03/24 00:52:48;;;;;;;38.30;24.10;;;;;;;6.66;70.66;100694.88;5014680;28;20052;-59
2021/03/24 00:55:21;;;;;;;43.20;26.13;;;;;;;6.66;71.51;100694.88;5014823;28;20129;-59
2021/03/24 00:57:56;;;;;;;39.70;25.10;;;;;;;6.65;70.93;100697.41;5014053;28;20436;-59
2021/03/24 01:00:35;;;;;;;38.67;24.05;;;;;;;6.64;71.38;100690.50;4996843;28;20438;-59
2021/03/24 01:03:06;;;;;;;38.95;23.92;;;;;;;6.64;70.79;100701.66;5014536;28;20050;-59
2021/03/24 01:05:39;;;;;;;40.33;23.38;;;;;;;6.63;70.82;100699.03;5014766;28;20092;-60
2021/03/24 01:08:23;;;;;;;37.40;23.00;;;;;;;6.62;71.32;100684.38;5015075;28;20034;-59
2021/03/24 01:10:57;;;;;;;33.70;22.20;;;;;;;6.62;70.78;100685.25;5013216;28;20030;-59
2021/03/24 01:13:36;;;;;;;39.30;22.35;;;;;;;6.62;71.41;100690.41;5013293;28;20124;-59
2021/03/24 01:16:08;;;;;;;32.63;22.60;;;;;;;6.62;70.89;100684.38;4996984;28;20037;-60
2021/03/24 01:18:39;;;;;;;37.72;22.27;;;;;;;6.61;70.91;100680.94;4997414;28;20038;-59
2021/03/24 01:21:10;;;;;;;37.75;22.33;;;;;;;6.60;70.98;100671.47;5010128;28;20030;-59
2021/03/24 01:23:43;;;;;;;37.10;22.33;;;;;;;6.61;70.86;100680.94;5014287;28;20132;-59
2021/03/24 01:26:17;;;;;;;36.05;22.25;;;;;;;6.59;71.05;100676.53;4997043;28;20041;-59
2021/03/24 01:29:00;;;;;;;38.70;20.53;;;;;;;6.58;71.24;100683.38;5013102;28;20046;-59
2021/03/24 01:31:29;;;;;;;30.05;20.35;;;;;;;6.58;70.97;100682.50;4996535;28;20331;-59
2021/03/24 01:34:00;;;;;;;33.55;21.25;;;;;;;6.55;71.25;100668.66;4996297;28;20030;-59
2021/03/24 01:36:32;;;;;;;35.10;21.02;;;;;;;6.56;70.98;100672.13;5012797;28;20705;-59
2021/03/24 01:39:03;;;;;;;35.47;20.88;;;;;;;6.55;70.80;100673.81;4996427;28;20034;-60
2021/03/24 01:41:37;;;;;;;32.85;21.38;;;;;;;6.57;70.65;100673.00;5014890;28;20034;-59
2021/03/24 01:44:09;;;;;;;31.42;21.48;;;;;;;6.56;71.16;100674.72;4996944;28;20038;-59
2021/03/24 01:46:45;;;;;;;35.70;22.13;;;;;;;6.56;71.24;100674.72;5029600;28;20132;-59
2021/03/24 01:49:25;;;;;;;32.80;21.48;;;;;;;6.55;70.79;100680.66;5013304;28;20527;-59
2021/03/24 01:52:05;;;;;;;34.95;21.85;;;;;;;6.54;71.10;100674.63;4997157;28;20069;-59
2021/03/24 01:54:42;;;;;;;37.10;21.38;;;;;;;6.53;70.96;100675.47;5014082;28;20034;-59
2021/03/24 01:57:16;;;;;;;39.20;23.20;;;;;;;6.54;70.84;100673.75;5029410;28;20038;-59
2021/03/24 01:59:50;;;;;;;39.47;22.27;;;;;;;6.53;71.12;100666.84;4996289;28;20510;-60
2021/03/24 02:02:24;;;;;;;36.05;22.60;;;;;;;6.52;71.00;100670.22;5013934;28;20046;-59
2021/03/24 02:04:58;;;;;;;38.92;22.75;;;;;;;6.52;70.42;100670.22;4996437;28;20049;-59
2021/03/24 02:07:41;;;;;;;41.30;22.70;;;;;;;6.51;71.28;100668.47;5029357;28;20041;-59
2021/03/24 02:10:19;;;;;;;32.90;22.38;;;;;;;6.51;70.79;100668.47;4996295;28;20042;-59
2021/03/24 02:13:34;;;;;;;42.42;22.83;;;;;;;6.49;71.01;100668.41;5013119;28;20037;-59
2021/03/24 02:16:15;;;;;;;35.70;23.27;;;;;;;6.48;70.67;100658.94;5013650;28;20133;-59
2021/03/24 02:18:54;;;;;;;39.72;22.15;;;;;;;6.48;71.05;100656.34;5012408;28;20034;-60
2021/03/24 02:21:33;;;;;;;36.70;23.00;;;;;;;6.47;70.86;100651.13;4996151;28;20487;-59
2021/03/24 02:24:30;;;;;;;34.38;23.02;;;;;;;6.47;70.86;100651.13;5012420;28;20487;-59
2021/03/24 02:27:17;;;;;;;34.67;21.17;;;;;;;6.46;70.65;100650.25;5012487;28;20125;-60
2021/03/24 02:30:08;;;;;;;39.22;23.63;;;;;;;6.46;70.67;100645.09;5013327;28;20030;-59
2021/03/24 02:32:56;;;;;;;35.30;21.38;;;;;;;6.46;70.93;100645.09;4995804;28;20041;-59
2021/03/24 02:35:35;;;;;;;35.35;21.88;;;;;;;6.45;70.66;100640.78;5012176;28;20042;-60
2021/03/24 02:38:07;;;;;;;37.92;22.48;;;;;;;6.46;70.52;100642.53;5013236;28;20033;-60
2021/03/24 02:40:41;;;;;;;35.22;22.40;;;;;;;6.46;70.92;100645.09;5011992;28;20564;-59
2021/03/24 02:43:18;;;;;;;40.33;23.70;;;;;;;6.45;71.10;100640.78;5011851;28;20038;-59
2021/03/24 02:45:58;;;;;;;40.15;22.35;;;;;;;6.44;70.63;100640.72;4995288;28;20045;-60
2021/03/24 02:48:42;;;;;;;40.03;23.00;;;;;;;6.43;70.91;100634.66;5012706;28;20049;-59
2021/03/24 02:51:26;;;;;;;41.63;23.73;;;;;;;6.42;70.55;100632.91;4995580;28;20049;-59
2021/03/24 02:54:03;;;;;;;39.55;23.27;;;;;;;6.40;70.86;100630.28;5028632;28;20038;-59
2021/03/24 02:56:39;;;;;;;41.13;24.55;;;;;;;6.39;70.57;100627.63;5013666;28;20073;-59
2021/03/24 02:59:16;;;;;;;;;;;;;;;6.37;71.13;100632.72;5014057;28;20379;-59
2021/03/24 03:02:09;;;;;;;42.95;24.10;;;;;;;6.37;71.03;100631.84;5011519;28;20418;-59
2021/03/24 03:04:47;;;;;;;41.53;24.83;;;;;;;6.38;70.43;100633.63;5028803;28;20121;-60
2021/03/24 03:07:28;;;;;;;35.72;22.35;;;;;;;6.35;70.55;100642.06;5012214;28;20034;-59
2021/03/24 03:10:20;;;;;;;34.65;23.27;;;;;;;6.35;70.57;100642.06;5011885;28;20030;-59
2021/03/24 03:13:20;;;;;;;45.17;26.05;;;;;;;6.35;70.99;100638.63;5013265;28;20034;-59
2021/03/24 03:15:53;;;;;;;40.25;23.42;;;;;;;6.37;70.44;100643.03;4995961;28;20108;-59
2021/03/24 03:18:31;;;;;;;37.05;23.80;;;;;;;6.34;70.43;100645.47;4995651;28;20042;-59
2021/03/24 03:21:04;;;;;;;41.40;25.60;;;;;;;6.33;70.52;100633.41;5012059;28;20045;-59
2021/03/24 03:23:35;;;;;;;41.10;24.17;;;;;;;6.32;70.77;100631.63;5012112;28;20037;-59
2021/03/24 03:26:11;;;;;;;35.97;23.10;;;;;;;6.32;70.47;100638.50;5032357;28;20042;-59
2021/03/24 03:28:50;;;;;;;39.15;24.10;;;;;;;6.30;70.39;100638.44;5032173;28;20038;-59
2021/03/24 03:31:25;;;;;;;45.20;25.23;;;;;;;6.31;70.63;100634.16;5015487;28;20049;-59
2021/03/24 03:33:55;;;;;;;42.75;24.05;;;;;;;6.30;70.51;100634.97;5015335;28;20457;-59
2021/03/24 03:36:29;;;;;;;42.45;24.33;;;;;;;6.30;70.25;100625.56;4999135;28;20495;-59
2021/03/24 03:39:03;;;;;;;44.33;25.38;;;;;;;6.29;70.64;100623.81;4999347;28;20029;-59
2021/03/24 03:41:38;;;;;;;38.72;24.13;;;;;;;6.29;70.71;100628.06;5016380;28;20125;-59
2021/03/24 03:44:13;;;;;;;39.20;24.95;;;;;;;6.28;70.49;100627.19;5015294;28;20056;-59
2021/03/24 03:46:48;;;;;;;41.20;24.92;;;;;;;6.27;70.98;100630.59;5016319;28;20045;-59
2021/03/24 03:49:21;;;;;;;39.58;25.33;;;;;;;6.25;70.82;100621.91;5015102;28;20036;-59
2021/03/24 03:52:26;;;;;;;38.85;23.58;;;;;;;6.24;70.45;100615.00;5014744;28;20519;-59
2021/03/24 03:55:07;;;;;;;35.53;24.25;;;;;;;6.25;70.82;100619.34;4998500;28;20038;-60
2021/03/24 03:57:40;;;;;;;38.17;23.77;;;;;;;6.22;70.53;100620.09;5015484;28;20033;-59
2021/03/24 04:00:21;;;;;;;38.15;23.77;;;;;;;6.22;70.53;100617.53;5016116;28;20034;-59
2021/03/24 04:02:54;;;;;;;38.92;24.20;;;;;;;6.21;70.49;100623.47;4998370;28;20058;-59
2021/03/24 04:05:35;;;;;;;38.35;25.75;;;;;;;6.22;70.47;100622.66;5016043;28;20034;-59
2021/03/24 04:08:13;;;;;;;36.65;24.83;;;;;;;6.22;70.71;100622.66;5014997;28;20479;-59
2021/03/24 04:10:49;;;;;;;45.08;24.33;;;;;;;6.22;70.55;100629.50;5015901;28;20479;-59
2021/03/24 04:13:39;;;;;;;38.13;23.85;;;;;;;6.20;70.56;100621.72;5030626;28;20091;-59
2021/03/24 04:16:05;;;;;;;39.45;23.80;;;;;;;6.21;70.05;100625.16;5014842;28;20030;-59
2021/03/24 04:18:47;;;;;;;39.47;25.33;;;;;;;6.19;70.43;100617.38;5014558;28;20034;-59
2021/03/24 04:21:17;;;;;;;42.95;26.65;;;;;;;6.20;70.74;100615.66;5014597;28;20034;-59
2021/03/24 04:23:56;;;;;;;40.40;24.52;;;;;;;6.19;70.66;100621.63;4998050;28;20070;-59
2021/03/24 04:26:33;;;;;;;36.33;24.52;;;;;;;6.19;70.56;100625.09;5014525;28;20091;-59
2021/03/24 04:29:20;;;;;;;45.83;26.73;;;;;;;6.18;70.42;100625.91;5015612;28;20056;-59
2021/03/24 04:31:55;;;;;;;43.78;25.80;;;;;;;6.19;70.40;100621.63;5015553;28;20121;-59
2021/03/24 04:34:23;;;;;;;43.95;26.52;;;;;;;6.20;70.90;100631.13;5015435;28;20053;-59
2021/03/24 04:37:14;;;;;;;41.33;25.48;;;;;;;6.18;70.28;100628.50;5014490;28;20529;-59
2021/03/24 04:39:48;;;;;;;45.40;26.05;;;;;;;6.19;70.24;100635.41;5014365;28;20510;-59
2021/03/24 04:43:11;;;;;;;46.75;26.23;;;;;;;6.17;70.05;100631.88;4997928;28;20042;-59
2021/03/24 04:46:03;;;;;;;42.55;26.55;;;;;;;6.17;70.55;100641.28;4996669;28;20111;-59
2021/03/24 04:48:50;;;;;;;42.25;26.05;;;;;;;6.16;70.20;100645.56;5015210;28;20483;-59
2021/03/24 04:51:30;;;;;;;44.33;27.50;;;;;;;6.15;70.14;100643.78;5014866;28;20049;-59
2021/03/24 04:54:15;;;;;;;48.63;27.60;;;;;;;6.14;70.41;100642.03;5014011;28;20120;-59
2021/03/24 04:56:56;;;;;;;43.95;25.65;;;;;;;6.14;70.82;100634.31;5015318;28;20042;-59
2021/03/24 04:59:35;;;;;;;41.90;24.65;;;;;;;6.14;70.43;100639.44;4997646;28;20042;-59
2021/03/24 05:02:27;;;;;;;40.58;24.10;;;;;;;6.14;70.80;100636.00;5014910;28;20153;-59
2021/03/24 05:05:20;;;;;;;45.88;26.60;;;;;;;6.13;70.53;100634.25;5015005;28;20553;-59
2021/03/24 05:07:54;;;;;;;46.50;25.00;;;;;;;6.10;70.69;100637.56;5013537;28;20056;-59
2021/03/24 05:10:32;;;;;;;41.92;25.52;;;;;;;6.09;70.45;100628.97;4996943;28;20057;-59
2021/03/24 05:13:19;;;;;;;44.20;25.60;;;;;;;6.08;70.45;100628.88;5029893;28;20038;-59
2021/03/24 05:16:05;;;;;;;42.95;25.48;;;;;;;6.07;70.12;100628.00;5013553;28;20038;-59
2021/03/24 05:18:39;;;;;;;49.88;25.52;;;;;;;6.08;70.33;100631.47;5014289;28;20060;-59
2021/03/24 05:21:16;;;;;;;43.38;25.85;;;;;;;6.06;70.48;100626.25;5014680;28;20403;-59
2021/03/24 05:23:57;;;;;;;43.90;27.48;;;;;;;6.07;70.12;100629.72;5029639;28;20077;-59
2021/03/24 05:26:48;;;;;;;43.72;25.15;;;;;;;6.07;70.13;100630.59;5014484;28;20502;-59
2021/03/24 05:29:32;;;;;;;43.92;27.15;;;;;;;6.05;70.66;100637.34;5014611;28;20037;-59
2021/03/24 05:32:14;;;;;;;46.05;27.67;;;;;;;6.06;70.43;100631.41;5013721;28;20041;-59
2021/03/24 05:34:50;;;;;;;45.53;27.10;;;;;;;6.05;70.71;100634.78;4996685;28;20141;-59
2021/03/24 05:37:29;;;;;;;53.58;28.85;;;;;;;6.06;70.35;100639.13;4996221;28;20041;-59
2021/03/24 05:40:32;;;;;;;51.78;29.55;;;;;;;6.04;70.81;100627.00;4997064;28;20403;-59
2021/03/24 05:43:12;;;;;;;50.22;29.85;;;;;;;6.05;70.45;100627.06;4996637;28;20045;-59
2021/03/24 05:45:55;;;;;;;49.05;28.38;;;;;;;6.04;69.96;100627.00;4996284;28;20551;-59
2021/03/24 05:48:38;;;;;;;50.22;28.35;;;;;;;6.04;70.44;100629.59;4996683;28;20454;-59
2021/03/24 05:51:26;;;;;;;54.13;30.13;;;;;;;6.03;70.11;100620.97;4996249;28;20042;-59
2021/03/24 05:54:16;;;;;;;52.05;27.80;;;;;;;6.05;70.35;100626.19;5014036;28;20052;-60
2021/03/24 05:57:23;;;;;;;45.95;28.52;;;;;;;6.04;69.90;100629.59;5014427;28;20070;-59
2021/03/24 05:59:53;;;;;;;55.58;30.08;;;;;;;6.03;70.04;100626.13;4996163;28;20030;-59
2021/03/24 06:02:38;;;;;;;50.58;30.05;;;;;;;6.03;70.20;100626.13;4996017;28;20054;-59
2021/03/24 06:05:11;;;;;;;;;;;;;;;6.01;69.90;100630.31;5014524;28;20030;-59
2021/03/24 06:07:51;;;;;;;47.20;27.55;;;;;;;6.02;69.98;100626.06;5012480;28;19917;-59
2021/03/24 06:10:41;;;;;;;52.65;27.88;;;;;;;6.00;70.46;100627.69;5012310;28;20033;-59
2021/03/24 06:13:24;;;;;;;52.33;28.48;;;;;;;6.00;70.06;100630.25;4996686;28;20038;-59
2021/03/24 06:16:11;;;;;;;46.88;26.45;;;;;;;6.01;70.22;100624.28;5012254;28;20038;-59
2021/03/24 06:18:49;;;;;;;51.45;27.52;;;;;;;6.02;70.29;100629.50;5013613;28;20033;-59
2021/03/24 06:21:22;;;;;;;53.88;29.77;;;;;;;6.02;69.93;100628.63;5013054;28;20092;-59
2021/03/24 06:24:08;;;;;;;50.28;27.00;;;;;;;6.02;70.45;100632.06;4995525;28;20042;-59
2021/03/24 06:26:51;;;;;;;46.53;26.30;;;;;;;6.02;70.01;100634.66;5029100;28;20044;-59
2021/03/24 06:29:45;;;;;;;47.13;27.35;;;;;;;6.01;70.05;100640.59;5012283;28;20049;-59
2021/03/24 06:32:38;;;;;;;48.85;27.33;;;;;;;6.01;70.12;100640.59;4996339;28;20052;-59
2021/03/24 06:35:38;;;;;;;49.08;27.65;;;;;;;6.00;69.96;100633.69;5013533;28;20038;-59
2021/03/24 06:38:31;;;;;;;47.63;27.13;;;;;;;6.02;70.25;100636.34;5012313;28;20128;-59
2021/03/24 06:41:35;;;;;;;48.65;27.20;;;;;;;6.02;70.04;100636.34;4996082;28;20455;-59
2021/03/24 06:44:16;;;;;;;52.80;27.42;;;;;;;6.04;70.28;100634.72;5013250;28;20041;-60
2021/03/24 06:47:29;;;;;;;50.75;28.75;;;;;;;6.03;70.60;100633.84;5012585;28;20395;-59
2021/03/24 06:50:16;;;;;;;55.22;28.80;;;;;;;6.05;70.42;100632.22;4987447;28;20038;-59
2021/03/24 06:53:05;;;;;;;46.17;27.70;;;;;;;6.05;70.25;100634.78;4995744;28;20100;-60
2021/03/24 06:55:36;;;;;;;56.38;31.52;;;;;;;6.07;70.28;100634.88;5012450;28;20107;-59
2021/03/24 06:58:51;;;;;;;48.72;28.33;;;;;;;6.08;69.79;100637.50;5012141;28;20037;-59
2021/03/24 07:02:00;;;;;;;52.63;30.83;;;;;;;6.08;70.42;100639.19;5010138;28;20141;-59
2021/03/24 07:04:44;;;;;;;51.97;28.05;;;;;;;6.07;70.16;100638.31;5017108;28;20128;-59
2021/03/24 07:07:27;;;;;;;44.88;26.77;;;;;;;6.09;70.25;100644.41;5017094;28;20099;-60
2021/03/24 07:10:11;;;;;;;54.65;29.80;;;;;;;6.11;70.18;100644.47;5000129;28;20129;-59
2021/03/24 07:13:09;;;;;;;55.08;30.52;;;;;;;6.14;70.30;100654.03;4999464;28;20422;-59
2021/03/24 07:15:35;;;;;;;56.33;31.30;;;;;;;6.14;70.15;100654.03;4999116;28;20069;-59
2021/03/24 07:18:32;;;;;;;57.20;30.42;;;;;;;6.13;70.51;100650.56;5015769;28;20074;-59
2021/03/24 07:21:01;;;;;;;51.88;31.45;;;;;;;6.15;70.25;100650.66;4982353;28;20049;-59
2021/03/24 07:23:45;;;;;;;59.70;29.30;;;;;;;6.14;70.56;100644.59;5016848;28;20048;-59
2021/03/24 07:26:25;;;;;;;;;;;;;;;6.14;69.78;100642.03;5015702;28;20104;-59
2021/03/24 07:29:15;;;;;;;55.20;29.05;;;;;;;6.14;70.53;100639.44;5032213;28;19913;-59
2021/03/24 07:32:09;;;;;;;54.67;31.52;;;;;;;6.15;70.14;100645.50;5015252;28;20034;-59
2021/03/24 07:34:53;;;;;;;53.20;31.02;;;;;;;6.15;70.09;100645.50;5015251;28;20099;-59
2021/03/24 07:38:13;;;;;;;52.67;31.17;;;;;;;6.15;69.95;100650.66;5016521;28;20034;-59
2021/03/24 07:41:14;;;;;;;56.45;32.72;;;;;;;6.17;70.25;100651.56;4977544;28;20045;-59
2021/03/24 07:43:52;;;;;;;62.40;31.33;;;;;;;6.17;70.27;100655.03;4977839;28;20077;-59
2021/03/24 07:46:51;;;;;;;50.55;30.88;;;;;;;6.19;70.10;100649.94;5015369;28;20450;-59
2021/03/24 07:49:42;;;;;;;50.47;30.48;;;;;;;6.22;70.26;100650.97;5015118;28;20050;-59
2021/03/24 07:52:45;;;;;;;55.03;32.25;;;;;;;6.26;70.21;100649.41;5016223;28;20131;-59
2021/03/24 07:55:38;;;;;;;62.10;33.15;;;;;;;6.28;70.42;100650.38;5015859;28;20087;-60
2021/03/24 07:58:35;;;;;;;115.80;71.47;;;;;;;6.33;70.49;100647.97;4999181;28;20129;-59
2021/03/24 08:01:31;;;;;;;201.90;114.55;;;;;;;6.36;70.04;100648.13;5014894;28;20088;-59
2021/03/24 08:04:29;;;;;;;182.25;104.05;;;;;;;6.39;69.84;100656.84;5016518;28;20034;-59
2021/03/24 08:07:22;;;;;;;323.92;201.93;;;;;;;6.42;70.66;100645.78;4998587;28;20038;-59
2021/03/24 08:09:59;;;;;;;300.20;190.00;;;;;;;6.47;70.29;100653.69;5014490;28;20096;-60
2021/03/24 08:12:53;;;;;;;279.38;173.48;;;;;;;6.49;69.80;100649.50;5015063;28;20049;-60
2021/03/24 08:15:33;;;;;;;292.83;194.55;;;;;;;6.54;69.86;100650.59;5015049;28;20044;-60
2021/03/24 08:18:23;;;;;;;259.23;167.25;;;;;;;6.64;70.38;100647.56;5015721;28;20038;-60
2021/03/24 08:21:00;;;;;;;243.57;152.60;;;;;;;6.73;70.05;100641.03;5014748;28;20030;-60
2021/03/24 08:23:51;;;;;;;218.85;135.18;;;;;;;6.83;69.96;100649.22;4998743;28;20042;-60
2021/03/24 08:27:08;;;;;;;206.43;128.73;;;;;;;6.93;70.12;100654.75;5014158;28;20087;-60
2021/03/24 08:29:48;;;;;;;184.45;115.25;;;;;;;7.00;70.24;100649.91;5030279;28;20070;-59
2021/03/24 08:32:47;;;;;;;173.43;109.47;;;;;;;7.06;69.96;100658.69;5014287;28;20041;-60
2021/03/24 08:35:44;;;;;;;152.95;98.95;;;;;;;7.14;69.90;100652.13;5015744;28;20060;-60
2021/03/24 08:38:38;;;;;;;144.88;88.97;;;;;;;7.18;69.82;100663.44;5014557;28;20041;-60
2021/03/24 08:41:54;;;;;;;142.15;87.97;;;;;;;7.22;69.84;100655.91;5015268;28;20038;-60
2021/03/24 08:44:55;;;;;;;129.98;84.40;;;;;;;7.28;70.00;100650.13;5013754;28;20030;-60
2021/03/24 08:47:32;;;;;;;127.47;80.35;;;;;;;7.36;70.05;100659.00;5015043;28;20099;-60
2021/03/24 08:50:32;;;;;;;115.78;72.15;;;;;;;7.43;69.94;100653.28;5015120;28;20037;-60
2021/03/24 08:53:28;;;;;;;116.75;69.80;;;;;;;7.50;69.83;100649.25;5013245;28;20136;-60
2021/03/24 08:56:19;;;;;;;107.35;66.15;;;;;;;7.55;69.80;100646.84;5015109;28;20033;-60
2021/03/24 08:59:27;;;;;;;99.68;58.60;;;;;;;7.67;69.60;100643.84;5013921;28;20509;-62
2021/03/24 09:02:24;;;;;;;107.38;61.63;;;;;;;7.78;69.15;100645.09;5014560;28;20041;-66
2021/03/24 09:05:41;;;;;;;103.15;52.08;;;;;;;7.79;68.88;100639.13;5014940;28;20116;-59
2021/03/24 09:08:32;;;;;;;84.13;44.60;;;;;;;7.85;69.36;100641.06;5007716;28;20095;-58
2021/03/24 09:11:15;;;;;;;92.50;47.17;;;;;;;7.92;69.23;100643.91;5014520;28;20042;-58
2021/03/24 09:13:57;;;;;;;95.90;42.75;;;;;;;8.05;69.12;100640.09;5014924;28;20116;-58
2021/03/24 09:16:50;;;;;;;75.78;43.10;;;;;;;8.13;69.45;100635.19;4997076;28;20037;-58
2021/03/24 09:19:33;;;;;;;91.32;44.75;;;;;;;8.21;69.29;100628.56;4997735;28;20050;-59
2021/03/24 09:22:20;;;;;;;104.30;45.95;;;;;;;8.27;69.35;100634.78;4996703;28;20034;-58
2021/03/24 09:25:02;;;;;;;86.68;41.75;;;;;;;8.30;69.81;100638.34;4996933;28;20136;-64
2021/03/24 09:27:56;;;;;;;73.15;41.13;;;;;;;8.30;69.23;100633.19;4997389;28;20060;-64
2021/03/24 09:30:25;;;;;;;75.40;40.85;;;;;;;8.36;69.19;100637.69;5005240;28;20045;-64
2021/03/24 09:33:25;;;;;;;79.93;40.33;;;;;;;8.42;69.61;100637.91;5014219;28;20045;-64
2021/03/24 09:36:15;;;;;;;75.22;40.60;;;;;;;8.53;69.46;100628.84;5013094;28;20491;-64
2021/03/24 09:38:48;;;;;;;77.30;38.80;;;;;;;8.62;69.27;100630.84;5014519;28;20483;-64
2021/03/24 09:41:27;;;;;;;82.30;41.60;;;;;;;8.70;69.28;100625.94;5014397;28;20180;-64
2021/03/24 09:44:01;;;;;;;70.38;36.88;;;;;;;8.76;69.37;100625.25;5013007;28;20037;-64
2021/03/24 09:46:42;;;;;;;78.35;38.95;;;;;;;8.79;69.05;100618.50;5014280;28;20128;-64
2021/03/24 09:49:42;;;;;;;63.20;33.40;;;;;;;8.84;69.21;100621.22;5014484;28;20549;-64
2021/03/24 09:52:13;;;;;;;62.22;34.58;;;;;;;8.84;69.06;100619.50;5013428;28;20115;-64
2021/03/24 09:55:04;;;;;;;58.90;32.20;;;;;;;8.86;69.15;100621.28;5013500;28;20042;-64
2021/03/24 09:58:06;;;;;;;55.83;32.17;;;;;;;8.88;69.01;100623.06;5013925;28;20550;-64
2021/03/24 10:00:38;;;;;;;57.65;32.75;;;;;;;8.91;69.03;100620.59;5013474;28;20044;-64
2021/03/24 10:03:25;;;;;;;54.13;33.70;;;;;;;8.93;69.18;100618.06;5013063;28;20053;-64
2021/03/24 10:05:58;;;;;;;55.15;30.23;;;;;;;8.94;68.95;100617.25;5013625;28;20038;-64
2021/03/24 10:08:41;;;;;;;64.00;31.57;;;;;;;8.96;69.02;100610.38;5013709;28;20034;-64
2021/03/24 10:11:18;;;;;;;56.28;31.85;;;;;;;8.98;69.09;100607.03;5013836;28;20088;-65
2021/03/24 10:14:06;;;;;;;60.63;29.83;;;;;;;9.00;69.06;100601.91;5029025;28;20475;-65
2021/03/24 10:16:43;;;;;;;57.95;29.38;;;;;;;9.00;69.10;100601.91;5013712;28;20514;-65
2021/03/24 10:19:39;;;;;;;55.58;31.40;;;;;;;9.01;69.21;100602.78;5013789;28;20042;-65
2021/03/24 10:22:13;;;;;;;55.47;29.50;;;;;;;9.02;68.96;100602.84;5013672;28;20036;-65
2021/03/24 10:24:58;;;;;;;52.22;27.45;;;;;;;9.04;68.97;100603.75;5012825;28;20120;-65
2021/03/24 10:27:33;;;;;;;46.72;26.90;;;;;;;9.03;68.85;100598.56;5013623;28;20052;-65
2021/03/24 10:30:01;;;;;;;50.85;28.13;;;;;;;9.04;68.80;100603.75;5012153;28;20038;-65
2021/03/24 10:32:57;;;;;;;56.63;30.67;;;;;;;9.05;68.76;100596.88;5013302;28;20041;-65
2021/03/24 10:35:38;;;;;;;51.42;29.30;;;;;;;9.03;68.91;100601.13;5010685;28;20108;-65
2021/03/24 10:38:06;;;;;;;50.70;28.20;;;;;;;9.03;68.85;100601.13;5017550;28;20116;-65
2021/03/24 10:40:44;;;;;;;50.33;27.73;;;;;;;9.06;68.85;100602.09;5017216;28;20037;-65
2021/03/24 10:43:27;;;;;;;55.17;30.55;;;;;;;9.08;68.80;100612.47;5016373;28;20040;-65
2021/03/24 10:46:25;;;;;;;49.05;27.73;;;;;;;9.07;69.04;100609.03;5017825;28;20092;-65
2021/03/24 10:49:05;;;;;;;46.10;25.50;;;;;;;9.07;68.78;100608.13;5017404;28;20049;-65
2021/03/24 10:51:49;;;;;;;48.60;28.65;;;;;;;9.05;68.91;100605.50;5016401;28;20140;-65
2021/03/24 10:54:27;;;;;;;52.63;28.13;;;;;;;9.05;68.89;100597.75;5016583;28;20365;-65
2021/03/24 10:57:48;;;;;;;52.97;27.15;;;;;;;9.08;68.98;100594.38;5017498;28;20079;-65
2021/03/24 11:00:31;;;;;;;50.03;26.85;;;;;;;9.08;69.13;100594.38;4921519;29;20078;-65
2021/03/24 11:03:17;;;;;;;46.50;28.75;;;;;;;9.08;68.71;100590.09;4937235;29;20624;-65
2021/03/24 11:05:52;;;;;;;47.60;28.67;;;;;;;9.08;69.24;100608.22;4991639;28;20096;-65
2021/03/24 11:08:45;;;;;;;49.63;28.48;;;;;;;9.10;68.85;100598.78;5016605;28;20048;-65
2021/03/24 11:11:37;;;;;;;52.05;30.30;;;;;;;9.11;68.90;100597.94;5032014;28;20037;-65
2021/03/24 11:14:17;;;;;;;47.85;28.25;;;;;;;9.09;68.78;100586.69;5015702;28;20041;-65
2021/03/24 11:17:00;;;;;;;50.05;29.35;;;;;;;9.09;68.91;100594.44;5015479;28;20453;-65
2021/03/24 11:19:28;;;;;;;50.70;30.33;;;;;;;9.09;68.67;100580.63;5015417;28;20048;-65
2021/03/24 11:22:14;;;;;;;52.85;30.42;;;;;;;9.09;68.76;100585.78;5016487;28;20038;-65
2021/03/24 11:24:58;;;;;;;51.38;30.55;;;;;;;9.09;68.77;100576.34;5017258;28;20041;-65
2021/03/24 11:27:42;;;;;;;54.07;29.77;;;;;;;9.07;68.75;100578.00;5032034;28;20030;-65
2021/03/24 11:30:29;;;;;;;50.75;29.83;;;;;;;9.08;68.85;100573.69;5015373;28;20289;-65
2021/03/24 11:33:18;;;;;;;51.83;28.17;;;;;;;9.08;68.74;100573.69;5016655;28;20042;-65
2021/03/24 11:35:59;;;;;;;42.72;25.98;;;;;;;9.06;68.59;100568.50;5016962;28;20032;-65
2021/03/24 11:38:54;;;;;;;52.00;28.63;;;;;;;9.07;68.78;100565.06;5015440;28;20044;-65
2021/03/24 11:41:23;;;;;;;51.47;28.83;;;;;;;9.09;68.69;100562.53;5032312;28;20399;-65
2021/03/24 11:44:04;;;;;;;48.72;29.45;;;;;;;9.09;68.69;100568.59;5015981;28;20065;-66
2021/03/24 11:46:50;;;;;;;49.53;28.33;;;;;;;9.09;69.01;100560.84;5016512;28;20041;-65
2021/03/24 11:49:35;;;;;;;45.38;27.50;;;;;;;9.11;68.88;100566.03;5016387;28;20044;-65
2021/03/24 11:52:31;;;;;;;51.45;27.15;;;;;;;9.08;68.78;100564.25;5015728;28;20041;-65
2021/03/24 11:55:36;;;;;;;47.03;26.85;;;;;;;9.07;68.87;100554.72;5015802;28;20121;-65
2021/03/24 11:58:12;;;;;;;49.50;28.27;;;;;;;9.08;68.95;100553.91;5015419;28;20030;-65
2021/03/24 12:01:06;;;;;;;55.55;27.23;;;;;;;9.07;68.54;100546.97;5016190;28;20042;-65
2021/03/24 12:04:01;;;;;;;42.40;23.98;;;;;;;9.06;68.80;100542.63;5004926;28;20053;-65
2021/03/24 12:06:42;;;;;;;42.58;24.45;;;;;;;9.07;68.61;100556.44;5016353;28;20038;-65
2021/03/24 12:09:25;;;;;;;45.20;26.35;;;;;;;9.07;68.70;100546.97;5015028;28;20046;-65
2021/03/24 12:12:08;;;;;;;41.20;23.30;;;;;;;9.07;68.80;100541.81;4998251;28;20038;-65
2021/03/24 12:14:34;;;;;;;47.38;25.85;;;;;;;9.06;69.06;100534.88;5015655;28;20064;-65
2021/03/24 12:17:24;;;;;;;51.45;26.73;;;;;;;9.07;68.87;100531.47;5015811;28;20076;-65
2021/03/24 12:19:49;;;;;;;44.15;24.90;;;;;;;9.06;69.05;100537.47;5015867;28;20037;-65
2021/03/24 12:22:18;;;;;;;42.95;25.63;;;;;;;9.05;68.71;100525.38;5014544;28;20513;-65
2021/03/24 12:25:18;;;;;;;50.85;26.17;;;;;;;9.06;69.20;100524.53;5014408;28;20076;-65
2021/03/24 12:27:47;;;;;;;50.50;25.85;;;;;;;9.06;68.80;100526.22;5014804;28;20157;-65
2021/03/24 12:30:27;;;;;;;48.17;25.48;;;;;;;9.07;68.93;100526.28;5015858;28;20484;-65